createdAt,value
2018-06-23T00:01:34.791Z,100587.92
2018-06-23T00:04:03.406Z,100606.16
2018-06-23T00:06:31.978Z,100599.97
2018-06-23T00:09:00.586Z,100606.23
2018-06-23T00:11:29.102Z,100606.56
2018-06-23T00:13:57.664Z,100607.75
2018-06-23T00:16:26.291Z,100606.23
2018-06-23T00:18:54.910Z,100600.67
2018-06-23T00:21:23.710Z,100612.77
2018-06-23T00:23:52.298Z,100622.70
2018-06-23T00:26:26.867Z,100616.98
2018-06-23T00:28:55.450Z,100622.58
2018-06-23T00:31:23.966Z,100630.80
2018-06-23T00:33:53.129Z,100631.91
2018-06-23T00:36:22.163Z,100634.92
2018-06-23T00:38:50.809Z,100636.85
2018-06-23T00:41:19.358Z,100641.57
2018-06-23T00:43:47.973Z,100636.94
2018-06-23T00:46:16.655Z,100646.31
2018-06-23T00:48:45.286Z,100640.02
2018-06-23T00:51:13.837Z,100644.66
2018-06-23T00:53:42.346Z,100644.58
2018-06-23T00:56:11.092Z,100643.55
2018-06-23T00:58:50.590Z,100644.23
2018-06-23T01:01:19.110Z,100648.10
2018-06-23T01:03:47.901Z,100646.14
2018-06-23T01:06:16.584Z,100653.02
2018-06-23T01:08:45.326Z,100657.25
2018-06-23T01:11:13.954Z,100660.07
2018-06-23T01:13:42.484Z,100657.58
2018-06-23T01:16:11.005Z,100656.41
2018-06-23T01:18:39.601Z,100662.34
2018-06-23T01:21:08.388Z,100661.30
2018-06-23T01:23:37.422Z,100657.63
2018-06-23T01:26:06.065Z,100669.70
2018-06-23T01:28:34.716Z,100669.97
2018-06-23T01:31:03.249Z,100677.14
2018-06-23T01:33:31.850Z,100673.89
2018-06-23T01:36:00.442Z,100672.33
2018-06-23T01:38:29.022Z,100678.63
2018-06-23T01:40:57.667Z,100675.75
2018-06-23T01:43:26.862Z,100677.20
2018-06-23T01:45:55.441Z,100678.27
2018-06-23T01:48:24.028Z,100685.09
2018-06-23T01:50:52.518Z,100689.23
2018-06-23T01:53:21.016Z,100687.25
2018-06-23T01:55:50.085Z,100693.52
2018-06-23T01:58:18.616Z,100687.90
2018-06-23T02:00:47.250Z,100693.23
2018-06-23T02:03:15.832Z,100684.63
2018-06-23T02:05:44.418Z,100691.79
2018-06-23T02:08:13.002Z,100695.09
2018-06-23T02:10:42.102Z,100694.81
2018-06-23T02:13:10.598Z,100702.06
2018-06-23T02:15:44.377Z,100699.08
2018-06-23T02:18:18.392Z,100705.84
2018-06-23T02:20:52.094Z,100708.89
2018-06-23T02:23:26.010Z,100709.02
2018-06-23T02:25:59.825Z,100711.23
2018-06-23T02:28:33.614Z,100708.22
2018-06-23T02:31:07.517Z,100710.46
2018-06-23T02:33:41.425Z,100711.42
2018-06-23T02:36:10.055Z,100721.17
2018-06-23T02:38:38.610Z,100722.06
2018-06-23T02:41:07.375Z,100737.84
2018-06-23T02:43:36.066Z,100729.06
2018-06-23T02:46:04.783Z,100728.19
2018-06-23T02:48:33.899Z,100732.14
2018-06-23T02:51:02.470Z,100733.45
2018-06-23T02:53:31.010Z,100724.25
2018-06-23T02:55:59.696Z,100737.78
2018-06-23T02:58:28.220Z,100733.84
2018-06-23T03:00:56.731Z,100732.52
2018-06-23T03:03:25.232Z,100740.83
2018-06-23T03:05:53.926Z,100745.55
2018-06-23T03:08:22.564Z,100743.78
2018-06-23T03:10:51.344Z,100743.78
2018-06-23T03:13:19.900Z,100745.48
2018-06-23T03:15:48.382Z,100750.69
2018-06-23T03:18:16.876Z,100745.84
2018-06-23T03:20:45.473Z,100755.82
2018-06-23T03:23:14.107Z,100754.05
2018-06-23T03:25:42.793Z,100762.69
2018-06-23T03:28:11.333Z,100763.75
2018-06-23T03:30:39.973Z,100757.82
2018-06-23T03:33:08.602Z,100762.89
2018-06-23T03:35:37.134Z,100763.50
2018-06-23T03:38:06.058Z,100768.89
2018-06-23T03:40:34.575Z,100772.45
2018-06-23T03:43:03.178Z,100764.81
2018-06-23T03:45:31.762Z,100770.27
2018-06-23T03:48:00.366Z,100771.84
2018-06-23T03:50:29.361Z,100772.89
2018-06-23T03:52:58.023Z,100774.71
2018-06-23T03:55:26.708Z,100770.91
2018-06-23T03:57:55.803Z,100775.91
2018-06-23T04:00:24.318Z,100766.69
2018-06-23T04:02:52.870Z,100776.48
2018-06-23T04:05:21.551Z,100777.45
2018-06-23T04:07:50.176Z,100774.93
2018-06-23T04:10:18.662Z,100778.61
2018-06-23T04:12:47.302Z,100785.09
2018-06-23T04:15:16.070Z,100784.07
2018-06-23T04:17:44.678Z,100785.96
2018-06-23T04:20:13.560Z,100793.95
2018-06-23T04:22:42.144Z,100790.96
2018-06-23T04:25:10.828Z,100793.65
2018-06-23T04:27:39.330Z,100799.34
2018-06-23T04:30:07.947Z,100799.00
2018-06-23T04:32:36.523Z,100804.11
2018-06-23T04:35:05.419Z,100802.63
2018-06-23T04:37:34.078Z,100798.30
2018-06-23T04:40:02.731Z,100807.38
2018-06-23T04:42:31.321Z,100804.11
2018-06-23T04:44:59.854Z,100801.99
2018-06-23T04:47:28.362Z,100812.51
2018-06-23T04:49:56.965Z,100804.83
2018-06-23T04:52:25.595Z,100814.99
2018-06-23T04:54:54.178Z,100807.85
2018-06-23T04:57:22.814Z,100818.67
2018-06-23T04:59:52.015Z,100820.46
2018-06-23T05:02:20.638Z,100819.22
2018-06-23T05:04:49.381Z,100821.01
2018-06-23T05:07:18.067Z,100819.22
2018-06-23T05:09:46.650Z,100820.20
2018-06-23T05:12:15.443Z,100828.92
2018-06-23T05:14:44.130Z,100829.20
2018-06-23T05:17:12.601Z,100833.95
2018-06-23T05:19:41.135Z,100832.23
2018-06-23T05:22:09.770Z,100830.53
2018-06-23T05:24:39.118Z,100838.11
2018-06-23T05:27:07.857Z,100844.72
2018-06-23T05:29:36.453Z,100844.72
2018-06-23T05:32:05.046Z,100846.42
2018-06-23T05:34:33.668Z,100847.48
2018-06-23T05:37:02.291Z,100851.39
2018-06-23T05:39:30.990Z,100853.71
2018-06-23T05:41:59.678Z,100853.00
2018-06-23T05:44:28.196Z,100850.96
2018-06-23T05:46:56.778Z,100851.56
2018-06-23T05:49:25.412Z,100850.83
2018-06-23T05:51:53.992Z,100848.86
2018-06-23T05:54:22.522Z,100843.13
2018-06-23T05:56:51.118Z,100843.34
2018-06-23T05:59:19.740Z,100842.19
2018-06-23T06:01:48.754Z,100843.16
2018-06-23T06:04:17.419Z,100850.91
2018-06-23T06:06:46.154Z,100850.23
2018-06-23T06:09:15.510Z,100848.42
2018-06-23T06:11:44.207Z,100849.27
2018-06-23T06:14:12.777Z,100844.02
2018-06-23T06:17:44.517Z,100843.04
2018-06-23T06:20:14.210Z,100845.83
2018-06-23T06:22:44.042Z,100845.63
2018-06-23T06:25:13.505Z,100849.58
2018-06-23T06:27:42.147Z,100856.58
2018-06-23T06:30:11.612Z,100853.47
2018-06-23T06:32:40.233Z,100848.40
2018-06-23T06:35:08.953Z,100851.88
2018-06-23T06:37:37.763Z,100851.56
2018-06-23T06:40:07.275Z,100852.11
2018-06-23T06:42:36.510Z,100852.41
2018-06-23T06:45:05.913Z,100854.02
2018-06-23T06:47:35.316Z,100852.73
2018-06-23T06:50:03.980Z,100851.19
2018-06-23T06:52:32.550Z,100847.95
2018-06-23T06:55:01.167Z,100857.84
2018-06-23T06:57:30.365Z,100858.06
2018-06-23T06:59:59.257Z,100852.20
2018-06-23T07:02:28.045Z,100856.91
2018-06-23T07:04:56.674Z,100858.48
2018-06-23T07:07:25.371Z,100862.36
2018-06-23T07:09:53.943Z,100860.25
2018-06-23T07:12:22.526Z,100862.38
2018-06-23T07:14:51.081Z,100863.96
2018-06-23T07:17:19.641Z,100860.16
2018-06-23T07:19:48.190Z,100861.94
2018-06-23T07:22:16.779Z,100849.72
2018-06-23T07:24:45.285Z,100862.38
2018-06-23T07:27:13.869Z,100855.31
2018-06-23T07:29:42.457Z,100858.27
2018-06-23T07:32:11.829Z,100868.36
2018-06-23T07:34:40.388Z,100849.59
2018-06-23T07:37:08.920Z,100862.94
2018-06-23T07:39:37.915Z,100856.59
2018-06-23T07:42:07.107Z,100856.84
2018-06-23T07:44:35.894Z,100855.41
2018-06-23T07:47:04.619Z,100854.59
2018-06-23T07:49:33.367Z,100853.61
2018-06-23T07:52:01.892Z,100848.73
2018-06-23T07:54:30.391Z,100854.59
2018-06-23T07:56:59.118Z,100850.40
2018-06-23T07:59:27.801Z,100845.53
2018-06-23T08:01:56.421Z,100847.15
2018-06-23T08:04:25.070Z,100849.19
2018-06-23T08:06:53.682Z,100854.45
2018-06-23T08:09:22.338Z,100848.59
2018-06-23T08:11:51.060Z,100851.16
2018-06-23T08:14:19.605Z,100840.86
2018-06-23T08:16:48.906Z,100853.73
2018-06-23T08:19:17.542Z,100858.60
2018-06-23T08:21:46.206Z,100861.00
2018-06-23T08:24:15.314Z,100863.44
2018-06-23T08:26:44.100Z,100861.52
2018-06-23T08:29:12.947Z,100859.07
2018-06-23T08:31:42.965Z,100851.77
2018-06-23T08:34:11.575Z,100863.20
2018-06-23T08:36:40.176Z,100870.03
2018-06-23T08:39:09.045Z,100865.15
2018-06-23T08:41:37.689Z,100875.61
2018-06-23T08:44:06.226Z,100871.27
2018-06-23T08:46:34.922Z,100876.37
2018-06-23T08:49:03.513Z,100870.56
2018-06-23T08:51:32.241Z,100869.09
2018-06-23T08:54:00.931Z,100862.17
2018-06-23T08:56:29.513Z,100859.61
2018-06-23T08:58:58.402Z,100858.75
2018-06-23T09:01:27.070Z,100869.69
2018-06-23T09:03:57.840Z,100868.36
2018-06-23T09:06:26.501Z,100871.25
2018-06-23T09:08:56.159Z,100879.77
2018-06-23T09:11:24.796Z,100864.92
2018-06-23T09:13:53.518Z,100879.52
2018-06-23T09:16:23.908Z,100873.08
2018-06-23T09:18:52.563Z,100881.09
2018-06-23T09:21:21.227Z,100885.14
2018-06-23T09:23:49.857Z,100868.84
2018-06-23T09:26:18.543Z,100883.77
2018-06-23T09:28:47.229Z,100875.86
2018-06-23T09:31:16.547Z,100879.27
2018-06-23T09:33:45.174Z,100879.64
2018-06-23T09:36:13.832Z,100882.78
2018-06-23T09:38:42.438Z,100879.64
2018-06-23T09:41:11.892Z,100877.55
2018-06-23T09:43:41.384Z,100888.47
2018-06-23T09:46:13.103Z,100879.56
2018-06-23T09:48:43.893Z,100878.09
2018-06-23T09:51:14.760Z,100875.52
2018-06-23T09:53:44.265Z,100872.37
2018-06-23T09:56:13.114Z,100878.70
2018-06-23T09:58:43.157Z,100876.36
2018-06-23T10:01:13.456Z,100882.01
2018-06-23T10:03:42.029Z,100874.44
2018-06-23T10:06:10.626Z,100875.78
2018-06-23T10:08:39.465Z,100877.95
2018-06-23T10:11:08.114Z,100881.33
2018-06-23T10:13:37.298Z,100877.55
2018-06-23T10:16:06.267Z,100874.80
2018-06-23T10:18:34.860Z,100884.67
2018-06-23T10:21:03.431Z,100887.89
2018-06-23T10:23:32.659Z,100891.69
2018-06-23T10:26:01.284Z,100887.63
2018-06-23T10:28:30.619Z,100884.26
2018-06-23T10:30:59.214Z,100881.97
2018-06-23T10:33:27.892Z,100885.25
2018-06-23T10:35:56.410Z,100869.19
2018-06-23T10:38:25.426Z,100879.64
2018-06-23T10:40:54.563Z,100873.72
2018-06-23T10:43:23.225Z,100872.50
2018-06-23T10:45:51.771Z,100864.22
2018-06-23T10:48:20.414Z,100876.02
2018-06-23T10:50:49.098Z,100878.25
2018-06-23T10:53:17.889Z,100876.75
2018-06-23T10:55:46.494Z,100884.44
2018-06-23T10:58:15.159Z,100884.66
2018-06-23T11:00:43.828Z,100878.69
2018-06-23T11:03:12.478Z,100884.52
2018-06-23T11:05:41.109Z,100879.52
2018-06-23T11:08:09.798Z,100881.75
2018-06-23T11:10:38.466Z,100883.09
2018-06-23T11:13:07.335Z,100887.93
2018-06-23T11:15:36.113Z,100889.31
2018-06-23T11:18:04.843Z,100882.57
2018-06-23T11:20:33.946Z,100883.91
2018-06-23T11:23:02.574Z,100888.19
2018-06-23T11:25:31.130Z,100900.68
2018-06-23T11:27:59.730Z,100897.99
2018-06-23T11:30:28.999Z,100890.86
2018-06-23T11:32:57.634Z,100899.20
2018-06-23T11:35:26.794Z,100902.73
2018-06-23T11:37:55.456Z,100899.29
2018-06-23T11:40:24.574Z,100897.52
2018-06-23T11:42:53.332Z,100893.81
2018-06-23T11:45:21.916Z,100892.25
2018-06-23T11:47:50.704Z,100886.27
2018-06-23T11:50:19.286Z,100896.77
2018-06-23T11:52:48.077Z,100896.45
2018-06-23T11:55:16.599Z,100898.30
2018-06-23T11:57:45.254Z,100890.78
2018-06-23T12:00:13.920Z,100886.66
2018-06-23T12:02:42.694Z,100884.77
2018-06-23T12:05:11.871Z,100888.65
2018-06-23T12:07:40.539Z,100891.55
2018-06-23T12:10:09.281Z,100891.94
2018-06-23T12:12:37.967Z,100881.02
2018-06-23T12:15:07.369Z,100885.97
2018-06-23T12:17:35.885Z,100887.20
2018-06-23T12:20:05.444Z,100891.28
2018-06-23T12:22:34.038Z,100888.66
2018-06-23T12:25:02.691Z,100891.58
2018-06-23T12:27:31.408Z,100894.12
2018-06-23T12:29:59.991Z,100899.38
2018-06-23T12:32:28.658Z,100899.53
2018-06-23T12:34:57.260Z,100899.80
2018-06-23T12:37:25.843Z,100900.39
2018-06-23T12:39:54.373Z,100887.39
2018-06-23T12:42:22.904Z,100895.77
2018-06-23T12:44:51.487Z,100893.33
2018-06-23T12:47:20.003Z,100900.20
2018-06-23T12:49:48.628Z,100906.34
2018-06-23T12:52:17.236Z,100909.56
2018-06-23T12:54:45.771Z,100907.70
2018-06-23T12:57:14.346Z,100891.33
2018-06-23T12:59:42.910Z,100891.36
2018-06-23T13:02:11.467Z,100886.32
2018-06-23T13:04:40.049Z,100881.37
2018-06-23T13:07:08.566Z,100886.20
2018-06-23T13:09:37.214Z,100883.79
2018-06-23T13:12:05.990Z,100884.17
2018-06-23T13:14:34.585Z,100886.30
2018-06-23T13:17:03.119Z,100890.81
2018-06-23T13:19:31.751Z,100898.12
2018-06-23T13:22:00.332Z,100898.80
2018-06-23T13:24:28.822Z,100903.20
2018-06-23T13:26:57.395Z,100896.66
2018-06-23T13:29:25.871Z,100904.02
2018-06-23T13:31:54.413Z,100901.23
2018-06-23T13:34:23.043Z,100908.33
2018-06-23T13:36:51.625Z,100905.63
2018-06-23T13:39:20.211Z,100898.87
2018-06-23T13:41:48.745Z,100905.81
2018-06-23T13:44:17.319Z,100905.44
2018-06-23T13:46:45.853Z,100911.87
2018-06-23T13:49:14.431Z,100921.77
2018-06-23T13:51:43.019Z,100912.25
2018-06-23T13:54:11.539Z,100911.52
2018-06-23T13:56:40.083Z,100908.09
2018-06-23T13:59:08.618Z,100913.86
2018-06-23T14:01:37.248Z,100914.90
2018-06-23T14:04:07.771Z,100914.87
2018-06-23T14:06:36.400Z,100914.01
2018-06-23T14:09:08.257Z,100909.73
2018-06-23T14:11:36.906Z,100898.12
2018-06-23T14:14:05.591Z,100898.17
2018-06-23T14:16:36.682Z,100901.86
2018-06-23T14:19:05.786Z,100904.36
2018-06-23T14:21:34.349Z,100892.63
2018-06-23T14:24:03.303Z,100895.67
2018-06-23T14:26:32.078Z,100893.95
2018-06-23T14:29:01.288Z,100883.25
2018-06-23T14:31:30.037Z,100886.84
2018-06-23T14:33:58.606Z,100896.50
2018-06-23T14:36:27.343Z,100895.44
2018-06-23T14:38:56.131Z,100893.36
2018-06-23T14:41:24.632Z,100899.27
2018-06-23T14:43:53.299Z,100885.48
2018-06-23T14:46:21.992Z,100883.33
2018-06-23T14:48:50.546Z,100883.12
2018-06-23T14:51:19.147Z,100874.08
2018-06-23T14:53:47.631Z,100872.73
2018-06-23T14:56:16.210Z,100878.72
2018-06-23T14:58:44.811Z,100876.55
2018-06-23T15:01:13.354Z,100874.76
2018-06-23T15:03:42.386Z,100875.97
2018-06-23T15:06:10.748Z,100880.61
2018-06-23T15:08:50.635Z,100874.77
2018-06-23T15:11:30.390Z,100876.34
2018-06-23T15:13:59.550Z,100870.94
2018-06-23T15:16:28.224Z,100875.70
2018-06-23T15:18:56.962Z,100868.42
2018-06-23T15:21:25.591Z,100863.42
2018-06-23T15:23:54.174Z,100862.53
2018-06-23T15:26:22.675Z,100858.10
2018-06-23T15:28:51.158Z,100786.80
2018-06-23T15:31:19.665Z,100855.46
2018-06-23T15:33:48.286Z,100863.20
2018-06-23T15:36:16.830Z,100853.95
2018-06-23T15:38:45.571Z,100852.78
2018-06-23T15:41:14.153Z,100851.55
2018-06-23T15:43:42.646Z,100847.97
2018-06-23T15:46:11.218Z,100855.16
2018-06-23T15:48:39.737Z,100856.22
2018-06-23T15:51:08.998Z,100851.75
2018-06-23T15:53:37.715Z,100853.84
2018-06-23T15:56:06.432Z,100843.16
2018-06-23T15:58:34.984Z,100841.98
2018-06-23T16:01:03.634Z,100842.59
2018-06-23T16:03:33.119Z,100845.38
2018-06-23T16:06:01.775Z,100842.43
2018-06-23T16:08:30.387Z,100840.75
2018-06-23T16:10:59.091Z,100842.16
2018-06-23T16:13:27.657Z,100837.81
2018-06-23T16:15:56.246Z,100836.79
2018-06-23T16:18:24.942Z,100836.20
2018-06-23T16:20:53.628Z,100832.67
2018-06-23T16:23:22.353Z,100835.21
2018-06-23T16:25:50.907Z,100834.38
2018-06-23T16:28:19.446Z,100839.19
2018-06-23T16:30:48.267Z,100840.19
2018-06-23T16:33:16.790Z,100830.64
2018-06-23T16:35:45.432Z,100831.72
2018-06-23T16:38:14.223Z,100829.84
2018-06-23T16:40:42.847Z,100838.42
2018-06-23T16:43:11.592Z,100839.14
2018-06-23T16:45:40.179Z,100836.27
2018-06-23T16:48:08.833Z,100842.41
2018-06-23T16:50:38.362Z,100835.62
2018-06-23T16:53:06.897Z,100839.48
2018-06-23T16:55:35.591Z,100843.56
2018-06-23T16:58:04.477Z,100840.55
2018-06-23T17:00:33.105Z,100848.97
2018-06-23T17:03:01.685Z,100850.70
2018-06-23T17:05:30.318Z,100845.47
2018-06-23T17:07:58.838Z,100858.26
2018-06-23T17:10:27.482Z,100854.28
2018-06-23T17:12:56.513Z,100850.91
2018-06-23T17:15:25.173Z,100845.94
2018-06-23T17:17:53.722Z,100854.06
2018-06-23T17:20:22.382Z,100848.03
2018-06-23T17:22:50.996Z,100846.27
2018-06-23T17:25:19.654Z,100850.23
2018-06-23T17:27:48.232Z,100845.95
2018-06-23T17:30:16.840Z,100852.41
2018-06-23T17:32:45.681Z,100846.23
2018-06-23T17:35:14.396Z,100845.25
2018-06-23T17:37:43.172Z,100848.54
2018-06-23T17:40:11.803Z,100851.27
2018-06-23T17:42:40.531Z,100849.36
2018-06-23T17:45:09.282Z,100852.30
2018-06-23T17:47:37.921Z,100854.34
2018-06-23T17:50:06.548Z,100849.83
2018-06-23T17:52:35.187Z,100850.81
2018-06-23T17:55:03.872Z,100855.97
2018-06-23T17:57:32.589Z,100851.72
2018-06-23T18:00:01.140Z,100855.48
2018-06-23T18:02:29.691Z,100850.03
2018-06-23T18:04:58.266Z,100855.38
2018-06-23T18:07:26.852Z,100845.54
2018-06-23T18:09:55.471Z,100839.48
2018-06-23T18:12:24.161Z,100844.52
2018-06-23T18:14:52.825Z,100843.34
2018-06-23T18:17:21.383Z,100842.83
2018-06-23T18:19:49.888Z,100835.65
2018-06-23T18:22:18.487Z,100835.41
2018-06-23T18:24:47.130Z,100840.89
2018-06-23T18:27:15.757Z,100842.02
2018-06-23T18:29:44.651Z,100831.81
2018-06-23T18:32:13.208Z,100832.66
2018-06-23T18:34:41.716Z,100839.70
2018-06-23T18:37:10.601Z,100844.55
2018-06-23T18:39:39.181Z,100843.70
2018-06-23T18:42:07.765Z,100839.92
2018-06-23T18:44:36.273Z,100837.73
2018-06-23T18:47:04.894Z,100838.09
2018-06-23T18:49:33.515Z,100847.80
2018-06-23T18:52:02.202Z,100847.44
2018-06-23T18:54:30.801Z,100844.63
2018-06-23T18:56:59.414Z,100845.22
2018-06-23T18:59:28.868Z,100853.47
2018-06-23T19:01:57.452Z,100854.56
2018-06-23T19:04:25.986Z,100855.74
2018-06-23T19:06:54.619Z,100859.63
2018-06-23T19:09:23.292Z,100857.78
2018-06-23T19:11:51.734Z,100860.09
2018-06-23T19:14:20.367Z,100860.28
2018-06-23T19:16:48.910Z,100863.80
2018-06-23T19:19:17.532Z,100862.53
2018-06-23T19:21:46.023Z,100861.86
2018-06-23T19:24:14.697Z,100863.91
2018-06-23T19:26:43.330Z,100867.83
2018-06-23T19:29:11.965Z,100867.17
2018-06-23T19:31:40.588Z,100862.05
2018-06-23T19:34:09.190Z,100855.19
2018-06-23T19:36:37.796Z,100858.80
2018-06-23T19:39:09.226Z,100860.69
2018-06-23T19:41:37.843Z,100858.58
2018-06-23T19:44:06.402Z,100862.73
2018-06-23T19:46:34.922Z,100859.78
2018-06-23T19:49:03.469Z,100869.00
2018-06-23T19:51:32.171Z,100869.25
2018-06-23T19:54:00.746Z,100873.02
2018-06-23T19:56:29.349Z,100874.31
2018-06-23T19:58:57.864Z,100868.66
2018-06-23T20:01:26.567Z,100869.69
2018-06-23T20:03:55.301Z,100868.98
2018-06-23T20:06:23.903Z,100867.92
2018-06-23T20:08:52.402Z,100868.80
2018-06-23T20:11:20.983Z,100869.68
2018-06-23T20:13:49.634Z,100864.98
2018-06-23T20:16:18.321Z,100869.12
2018-06-23T20:18:46.941Z,100863.95
2018-06-23T20:21:15.510Z,100865.31
2018-06-23T20:23:44.946Z,100872.37
2018-06-23T20:26:13.614Z,100872.17
2018-06-23T20:28:42.202Z,100865.27
2018-06-23T20:31:11.770Z,100862.24
2018-06-23T20:33:40.447Z,100861.20
2018-06-23T20:36:09.128Z,100868.25
2018-06-23T20:38:37.686Z,100867.31
2018-06-23T20:41:06.267Z,100863.72
2018-06-23T20:43:34.873Z,100865.64
2018-06-23T20:46:03.445Z,100866.22
2018-06-23T20:48:32.029Z,100864.05
2018-06-23T20:51:00.734Z,100863.41
2018-06-23T20:53:29.371Z,100852.50
2018-06-23T20:55:58.000Z,100863.99
2018-06-23T20:58:26.541Z,100868.72
2018-06-23T21:00:55.234Z,100873.48
2018-06-23T21:03:23.852Z,100878.22
2018-06-23T21:05:52.432Z,100882.94
2018-06-23T21:08:21.011Z,100874.62
2018-06-23T21:10:49.644Z,100877.64
2018-06-23T21:13:18.283Z,100877.42
2018-06-23T21:15:46.818Z,100875.18
2018-06-23T21:18:15.449Z,100876.84
2018-06-23T21:20:44.133Z,100876.25
2018-06-23T21:23:12.666Z,100875.02
2018-06-23T21:25:41.300Z,100873.56
2018-06-23T21:28:10.006Z,100883.42
2018-06-23T21:30:38.577Z,100879.72
2018-06-23T21:33:07.252Z,100878.67
2018-06-23T21:35:35.878Z,100871.08
2018-06-23T21:38:04.462Z,100874.86
2018-06-23T21:40:32.991Z,100805.21
2018-06-23T21:43:01.511Z,100867.53
2018-06-23T21:45:30.025Z,100867.80
2018-06-23T21:47:58.700Z,100865.88
2018-06-23T21:50:27.308Z,100867.02
2018-06-23T21:52:55.870Z,100864.63
2018-06-23T21:55:24.411Z,100862.24
2018-06-23T21:57:52.923Z,100862.96
2018-06-23T22:00:39.720Z,100872.95
2018-06-23T22:03:10.577Z,100877.69
2018-06-23T22:05:39.162Z,100870.86
2018-06-23T22:08:08.788Z,100872.82
2018-06-23T22:10:37.398Z,100874.03
2018-06-23T22:13:06.262Z,100879.95
2018-06-23T22:15:34.871Z,100872.73
2018-06-23T22:18:03.559Z,100880.38
2018-06-23T22:20:32.243Z,100881.02
2018-06-23T22:23:00.770Z,100889.98
2018-06-23T22:25:29.373Z,100895.83
2018-06-23T22:27:57.940Z,100889.38
2018-06-23T22:30:26.440Z,100895.79
2018-06-23T22:32:55.004Z,100894.26
2018-06-23T22:35:23.539Z,100906.71
2018-06-23T22:37:52.117Z,100905.96
2018-06-23T22:40:20.626Z,100904.36
2018-06-23T22:42:49.190Z,100904.36
2018-06-23T22:45:17.763Z,100909.36
2018-06-23T22:47:46.400Z,100903.38
2018-06-23T22:50:14.958Z,100896.00
2018-06-23T22:52:43.501Z,100896.55
2018-06-23T22:55:12.164Z,100895.76
2018-06-23T22:57:40.794Z,100891.95
2018-06-23T23:00:13.520Z,100896.50
2018-06-23T23:02:42.758Z,100899.30
2018-06-23T23:05:11.803Z,100898.15
2018-06-23T23:07:40.908Z,100901.87
2018-06-23T23:10:10.907Z,100899.95
2018-06-23T23:12:39.823Z,100911.08
2018-06-23T23:15:08.462Z,100905.41
2018-06-23T23:17:37.125Z,100906.11
2018-06-23T23:20:06.279Z,100907.13
2018-06-23T23:22:34.903Z,100908.53
2018-06-23T23:25:03.488Z,100912.50
2018-06-23T23:27:32.071Z,100906.05
2018-06-23T23:30:00.716Z,100908.70
2018-06-23T23:32:29.338Z,100902.63
2018-06-23T23:34:57.921Z,100899.22
2018-06-23T23:37:26.502Z,100899.38
2018-06-23T23:39:55.006Z,100895.88
2018-06-23T23:42:23.544Z,100900.30
2018-06-23T23:44:52.153Z,100903.88
2018-06-23T23:47:20.680Z,100899.13
2018-06-23T23:49:49.420Z,100899.13
2018-06-23T23:52:17.998Z,100893.09
2018-06-23T23:54:46.548Z,100889.42
2018-06-23T23:57:15.088Z,100889.13
2018-06-23T23:59:43.748Z,100892.68
